sensor_id;sensor_type;location;lat;lon;timestamp;temperature;humidity
15556;DHT22;7879;48.660;9.116;2023-06-26T00:00:32;18.00;99.10
15556;DHT22;7879;48.660;9.116;2023-06-26T00:02:59;18.00;99.50
15556;DHT22;7879;48.660;9.116;2023-06-26T00:05:26;17.90;99.80
15556;DHT22;7879;48.660;9.116;2023-06-26T00:07:54;17.90;99.90
15556;DHT22;7879;48.660;9.116;2023-06-26T00:10:21;17.80;99.90
15556;DHT22;7879;48.660;9.116;2023-06-26T00:12:48;17.70;99.90
15556;DHT22;7879;48.660;9.116;2023-06-26T00:15:15;17.70;99.90
15556;DHT22;7879;48.660;9.116;2023-06-26T00:17:42;17.70;99.90
15556;DHT22;7879;48.660;9.116;2023-06-26T00:20:09;17.70;99.90
15556;DHT22;7879;48.660;9.116;2023-06-26T00:22:36;17.60;99.90
15556;DHT22;7879;48.660;9.116;2023-06-26T00:25:07;17.60;99.90
15556;DHT22;7879;48.660;9.116;2023-06-26T00:27:34;17.60;99.90
15556;DHT22;7879;48.660;9.116;2023-06-26T00:30:02;17.40;99.90
15556;DHT22;7879;48.660;9.116;2023-06-26T00:32:29;17.40;99.90
15556;DHT22;7879;48.660;9.116;2023-06-26T00:34:56;17.30;99.90
15556;DHT22;7879;48.660;9.116;2023-06-26T00:37:23;17.30;99.90
15556;DHT22;7879;48.660;9.116;2023-06-26T00:39:50;17.20;99.90
15556;DHT22;7879;48.660;9.116;2023-06-26T00:42:17;17.20;99.90
15556;DHT22;7879;48.660;9.116;2023-06-26T00:44:44;17.20;99.90
15556;DHT22;7879;48.660;9.116;2023-06-26T00:47:14;17.20;99.90
15556;DHT22;7879;48.660;9.116;2023-06-26T00:49:42;17.10;99.90
15556;DHT22;7879;48.660;9.116;2023-06-26T00:52:09;17.00;99.90
15556;DHT22;7879;48.660;9.116;2023-06-26T00:54:36;17.00;99.90
15556;DHT22;7879;48.660;9.116;2023-06-26T00:57:03;16.90;99.90
15556;DHT22;7879;48.660;9.116;2023-06-26T00:59:30;16.90;99.90
15556;DHT22;7879;48.660;9.116;2023-06-26T01:01:57;16.80;99.90
15556;DHT22;7879;48.660;9.116;2023-06-26T01:04:24;16.80;99.90
15556;DHT22;7879;48.660;9.116;2023-06-26T01:06:55;16.80;99.90
15556;DHT22;7879;48.660;9.116;2023-06-26T01:09:22;16.80;99.90
15556;DHT22;7879;48.660;9.116;2023-06-26T01:11:50;16.70;99.90
15556;DHT22;7879;48.660;9.116;2023-06-26T01:14:17;16.70;99.90
15556;DHT22;7879;48.660;9.116;2023-06-26T01:16:45;16.60;99.90
15556;DHT22;7879;48.660;9.116;2023-06-26T01:19:20;16.60;99.90
15556;DHT22;7879;48.660;9.116;2023-06-26T01:24:56;16.50;99.90
15556;DHT22;7879;48.660;9.116;2023-06-26T01:27:30;16.40;99.90
15556;DHT22;7879;48.660;9.116;2023-06-26T01:30:01;16.40;99.90
15556;DHT22;7879;48.660;9.116;2023-06-26T01:32:31;16.30;99.90
15556;DHT22;7879;48.660;9.116;2023-06-26T01:34:59;16.20;99.90
15556;DHT22;7879;48.660;9.116;2023-06-26T01:37:27;16.20;99.90
15556;DHT22;7879;48.660;9.116;2023-06-26T01:39:53;16.20;99.90
15556;DHT22;7879;48.660;9.116;2023-06-26T01:42:20;16.20;99.90
15556;DHT22;7879;48.660;9.116;2023-06-26T01:44:47;16.10;99.90
15556;DHT22;7879;48.660;9.116;2023-06-26T01:47:17;16.00;99.90
15556;DHT22;7879;48.660;9.116;2023-06-26T01:49:51;16.00;99.90
15556;DHT22;7879;48.660;9.116;2023-06-26T01:52:39;16.00;99.90
15556;DHT22;7879;48.660;9.116;2023-06-26T01:55:30;16.00;99.90
15556;DHT22;7879;48.660;9.116;2023-06-26T01:58:00;15.90;99.90
15556;DHT22;7879;48.660;9.116;2023-06-26T02:00:27;15.80;99.90
15556;DHT22;7879;48.660;9.116;2023-06-26T02:02:54;15.80;99.90
15556;DHT22;7879;48.660;9.116;2023-06-26T02:05:21;15.80;99.90
15556;DHT22;7879;48.660;9.116;2023-06-26T02:07:50;15.80;99.90
15556;DHT22;7879;48.660;9.116;2023-06-26T02:10:18;15.80;99.90
15556;DHT22;7879;48.660;9.116;2023-06-26T02:12:45;15.70;99.90
15556;DHT22;7879;48.660;9.116;2023-06-26T02:15:12;15.60;99.90
15556;DHT22;7879;48.660;9.116;2023-06-26T02:17:39;15.60;99.90
15556;DHT22;7879;48.660;9.116;2023-06-26T02:20:07;15.60;99.90
15556;DHT22;7879;48.660;9.116;2023-06-26T02:22:36;15.60;99.90
15556;DHT22;7879;48.660;9.116;2023-06-26T02:25:03;15.60;99.90
15556;DHT22;7879;48.660;9.116;2023-06-26T02:27:30;15.50;99.90
15556;DHT22;7879;48.660;9.116;2023-06-26T02:29:56;15.50;99.90
15556;DHT22;7879;48.660;9.116;2023-06-26T02:32:23;15.40;99.90
15556;DHT22;7879;48.660;9.116;2023-06-26T02:34:50;15.40;99.90
15556;DHT22;7879;48.660;9.116;2023-06-26T02:37:20;15.40;99.90
15556;DHT22;7879;48.660;9.116;2023-06-26T02:39:47;15.30;99.90
15556;DHT22;7879;48.660;9.116;2023-06-26T02:42:14;15.30;99.90
15556;DHT22;7879;48.660;9.116;2023-06-26T02:44:41;15.20;99.90
15556;DHT22;7879;48.660;9.116;2023-06-26T02:47:08;15.20;99.90
15556;DHT22;7879;48.660;9.116;2023-06-26T02:49:35;15.20;99.90
15556;DHT22;7879;48.660;9.116;2023-06-26T02:52:02;15.20;99.90
15556;DHT22;7879;48.660;9.116;2023-06-26T02:54:29;15.20;99.90
15556;DHT22;7879;48.660;9.116;2023-06-26T02:56:55;15.10;99.90
15556;DHT22;7879;48.660;9.116;2023-06-26T02:59:23;14.90;99.90
15556;DHT22;7879;48.660;9.116;2023-06-26T03:01:49;15.00;99.90
15556;DHT22;7879;48.660;9.116;2023-06-26T03:04:19;15.00;99.90
15556;DHT22;7879;48.660;9.116;2023-06-26T03:06:48;15.00;99.90
15556;DHT22;7879;48.660;9.116;2023-06-26T03:09:15;15.00;99.90
15556;DHT22;7879;48.660;9.116;2023-06-26T03:11:43;15.00;99.90
15556;DHT22;7879;48.660;9.116;2023-06-26T03:14:09;15.00;99.90
15556;DHT22;7879;48.660;9.116;2023-06-26T03:16:36;14.90;99.90
15556;DHT22;7879;48.660;9.116;2023-06-26T03:19:03;14.90;99.90
15556;DHT22;7879;48.660;9.116;2023-06-26T03:21:31;14.90;99.90
15556;DHT22;7879;48.660;9.116;2023-06-26T03:23:58;14.80;99.90
15556;DHT22;7879;48.660;9.116;2023-06-26T03:26:28;14.80;99.90
15556;DHT22;7879;48.660;9.116;2023-06-26T03:28:55;14.80;99.90
15556;DHT22;7879;48.660;9.116;2023-06-26T03:31:22;14.80;99.90
15556;DHT22;7879;48.660;9.116;2023-06-26T03:33:49;14.80;99.90
15556;DHT22;7879;48.660;9.116;2023-06-26T03:36:15;14.80;99.90
15556;DHT22;7879;48.660;9.116;2023-06-26T03:38:42;14.80;99.90
15556;DHT22;7879;48.660;9.116;2023-06-26T03:41:09;14.80;99.90
15556;DHT22;7879;48.660;9.116;2023-06-26T03:43:36;14.70;99.90
15556;DHT22;7879;48.660;9.116;2023-06-26T03:46:03;14.70;99.90
15556;DHT22;7879;48.660;9.116;2023-06-26T03:48:30;14.80;99.90
15556;DHT22;7879;48.660;9.116;2023-06-26T03:50:58;14.80;99.90
15556;DHT22;7879;48.660;9.116;2023-06-26T03:53:24;14.80;99.90
15556;DHT22;7879;48.660;9.116;2023-06-26T03:55:51;14.80;99.90
15556;DHT22;7879;48.660;9.116;2023-06-26T03:58:18;14.80;99.90
15556;DHT22;7879;48.660;9.116;2023-06-26T04:00:45;14.80;99.90
15556;DHT22;7879;48.660;9.116;2023-06-26T04:03:13;14.80;99.90
15556;DHT22;7879;48.660;9.116;2023-06-26T04:05:40;14.80;99.90
15556;DHT22;7879;48.660;9.116;2023-06-26T04:08:08;14.80;99.90
15556;DHT22;7879;48.660;9.116;2023-06-26T04:10:34;14.80;99.90
15556;DHT22;7879;48.660;9.116;2023-06-26T04:13:02;14.80;99.90
15556;DHT22;7879;48.660;9.116;2023-06-26T04:15:29;14.90;99.90
15556;DHT22;7879;48.660;9.116;2023-06-26T04:17:56;14.90;99.90
15556;DHT22;7879;48.660;9.116;2023-06-26T04:20:23;14.90;99.90
15556;DHT22;7879;48.660;9.116;2023-06-26T04:22:50;15.10;99.90
15556;DHT22;7879;48.660;9.116;2023-06-26T04:25:17;15.00;99.90
15556;DHT22;7879;48.660;9.116;2023-06-26T04:27:44;15.00;99.90
15556;DHT22;7879;48.660;9.116;2023-06-26T04:30:11;15.00;99.90
15556;DHT22;7879;48.660;9.116;2023-06-26T04:32:39;15.10;99.90
15556;DHT22;7879;48.660;9.116;2023-06-26T04:35:06;15.10;99.90
15556;DHT22;7879;48.660;9.116;2023-06-26T04:37:33;15.10;99.90
15556;DHT22;7879;48.660;9.116;2023-06-26T04:39:59;15.20;99.90
15556;DHT22;7879;48.660;9.116;2023-06-26T04:42:28;15.30;99.90
15556;DHT22;7879;48.660;9.116;2023-06-26T04:44:55;15.30;99.90
15556;DHT22;7879;48.660;9.116;2023-06-26T04:47:22;15.30;99.90
15556;DHT22;7879;48.660;9.116;2023-06-26T04:49:49;15.30;99.90
15556;DHT22;7879;48.660;9.116;2023-06-26T04:52:15;15.40;99.90
15556;DHT22;7879;48.660;9.116;2023-06-26T04:54:42;15.50;99.90
15556;DHT22;7879;48.660;9.116;2023-06-26T04:57:09;15.50;99.90
15556;DHT22;7879;48.660;9.116;2023-06-26T04:59:38;15.60;99.90
15556;DHT22;7879;48.660;9.116;2023-06-26T05:02:05;15.50;99.90
15556;DHT22;7879;48.660;9.116;2023-06-26T05:04:32;15.70;99.90
15556;DHT22;7879;48.660;9.116;2023-06-26T05:06:59;15.80;99.90
15556;DHT22;7879;48.660;9.116;2023-06-26T05:09:26;15.90;99.90
15556;DHT22;7879;48.660;9.116;2023-06-26T05:11:53;15.90;99.90
15556;DHT22;7879;48.660;9.116;2023-06-26T05:14:20;16.10;99.90
15556;DHT22;7879;48.660;9.116;2023-06-26T05:16:49;16.20;99.90
15556;DHT22;7879;48.660;9.116;2023-06-26T05:19:16;16.40;99.90
15556;DHT22;7879;48.660;9.116;2023-06-26T05:21:43;16.50;99.90
15556;DHT22;7879;48.660;9.116;2023-06-26T05:24:13;16.60;99.90
15556;DHT22;7879;48.660;9.116;2023-06-26T05:26:40;16.80;99.90
15556;DHT22;7879;48.660;9.116;2023-06-26T05:29:07;16.80;99.90
15556;DHT22;7879;48.660;9.116;2023-06-26T05:31:40;16.90;99.90
15556;DHT22;7879;48.660;9.116;2023-06-26T05:34:07;17.10;99.90
15556;DHT22;7879;48.660;9.116;2023-06-26T05:36:37;17.20;99.90
15556;DHT22;7879;48.660;9.116;2023-06-26T05:39:07;17.30;99.90
15556;DHT22;7879;48.660;9.116;2023-06-26T05:41:34;17.30;99.90
15556;DHT22;7879;48.660;9.116;2023-06-26T05:44:01;17.40;99.90
15556;DHT22;7879;48.660;9.116;2023-06-26T05:46:28;17.50;99.90
15556;DHT22;7879;48.660;9.116;2023-06-26T05:48:55;17.60;99.90
15556;DHT22;7879;48.660;9.116;2023-06-26T05:51:23;17.70;99.90
15556;DHT22;7879;48.660;9.116;2023-06-26T05:53:50;17.80;99.90
15556;DHT22;7879;48.660;9.116;2023-06-26T05:56:17;17.90;99.90
15556;DHT22;7879;48.660;9.116;2023-06-26T05:58:46;18.00;99.90
15556;DHT22;7879;48.660;9.116;2023-06-26T06:01:13;18.20;99.90
15556;DHT22;7879;48.660;9.116;2023-06-26T06:03:40;18.30;99.90
15556;DHT22;7879;48.660;9.116;2023-06-26T06:06:07;18.40;99.90
15556;DHT22;7879;48.660;9.116;2023-06-26T06:08:34;18.60;99.90
15556;DHT22;7879;48.660;9.116;2023-06-26T06:11:00;18.70;99.90
15556;DHT22;7879;48.660;9.116;2023-06-26T06:13:28;18.70;99.90
15556;DHT22;7879;48.660;9.116;2023-06-26T06:15:55;18.80;99.90
15556;DHT22;7879;48.660;9.116;2023-06-26T06:18:22;19.00;99.90
15556;DHT22;7879;48.660;9.116;2023-06-26T06:20:49;19.10;99.90
15556;DHT22;7879;48.660;9.116;2023-06-26T06:23:16;19.20;99.90
15556;DHT22;7879;48.660;9.116;2023-06-26T06:25:43;19.40;99.90
15556;DHT22;7879;48.660;9.116;2023-06-26T06:28:09;19.60;99.90
15556;DHT22;7879;48.660;9.116;2023-06-26T06:30:37;19.90;99.90
15556;DHT22;7879;48.660;9.116;2023-06-26T06:33:07;20.00;99.90
15556;DHT22;7879;48.660;9.116;2023-06-26T06:35:33;20.10;99.90
15556;DHT22;7879;48.660;9.116;2023-06-26T06:38:00;20.30;99.90
15556;DHT22;7879;48.660;9.116;2023-06-26T06:40:27;20.40;99.90
15556;DHT22;7879;48.660;9.116;2023-06-26T06:42:55;20.50;99.90
15556;DHT22;7879;48.660;9.116;2023-06-26T06:45:22;20.70;99.90
15556;DHT22;7879;48.660;9.116;2023-06-26T06:47:49;20.80;99.90
15556;DHT22;7879;48.660;9.116;2023-06-26T06:50:16;20.90;99.90
15556;DHT22;7879;48.660;9.116;2023-06-26T06:52:45;21.00;99.90
15556;DHT22;7879;48.660;9.116;2023-06-26T06:55:12;21.00;99.90
15556;DHT22;7879;48.660;9.116;2023-06-26T06:57:39;21.20;99.90
15556;DHT22;7879;48.660;9.116;2023-06-26T07:00:11;21.30;99.90
15556;DHT22;7879;48.660;9.116;2023-06-26T07:02:40;21.40;99.90
15556;DHT22;7879;48.660;9.116;2023-06-26T07:05:07;21.50;99.90
15556;DHT22;7879;48.660;9.116;2023-06-26T07:07:35;21.70;99.90
15556;DHT22;7879;48.660;9.116;2023-06-26T07:10:08;21.80;99.90
15556;DHT22;7879;48.660;9.116;2023-06-26T07:12:35;22.10;99.90
15556;DHT22;7879;48.660;9.116;2023-06-26T07:15:03;22.10;99.90
15556;DHT22;7879;48.660;9.116;2023-06-26T07:17:32;22.20;99.90
15556;DHT22;7879;48.660;9.116;2023-06-26T07:20:00;22.40;99.90
15556;DHT22;7879;48.660;9.116;2023-06-26T07:22:27;22.60;99.90
15556;DHT22;7879;48.660;9.116;2023-06-26T07:24:54;22.70;99.90
15556;DHT22;7879;48.660;9.116;2023-06-26T07:27:20;22.80;99.90
15556;DHT22;7879;48.660;9.116;2023-06-26T07:29:48;23.00;99.90
15556;DHT22;7879;48.660;9.116;2023-06-26T07:32:14;23.10;99.90
15556;DHT22;7879;48.660;9.116;2023-06-26T07:34:41;23.20;99.90
15556;DHT22;7879;48.660;9.116;2023-06-26T07:37:08;23.30;99.90
15556;DHT22;7879;48.660;9.116;2023-06-26T07:39:35;23.40;99.90
15556;DHT22;7879;48.660;9.116;2023-06-26T07:42:02;23.50;99.90
15556;DHT22;7879;48.660;9.116;2023-06-26T07:44:29;23.60;99.90
15556;DHT22;7879;48.660;9.116;2023-06-26T07:46:57;23.80;99.90
15556;DHT22;7879;48.660;9.116;2023-06-26T07:49:24;23.80;99.90
15556;DHT22;7879;48.660;9.116;2023-06-26T07:51:51;23.90;99.90
15556;DHT22;7879;48.660;9.116;2023-06-26T07:54:18;24.00;99.90
15556;DHT22;7879;48.660;9.116;2023-06-26T07:57:02;24.10;99.90
15556;DHT22;7879;48.660;9.116;2023-06-26T07:59:30;24.20;99.90
15556;DHT22;7879;48.660;9.116;2023-06-26T08:01:58;24.30;99.90
15556;DHT22;7879;48.660;9.116;2023-06-26T08:04:27;24.40;99.90
15556;DHT22;7879;48.660;9.116;2023-06-26T08:06:56;24.50;99.90
15556;DHT22;7879;48.660;9.116;2023-06-26T08:09:26;24.70;99.90
15556;DHT22;7879;48.660;9.116;2023-06-26T08:11:54;24.90;99.90
15556;DHT22;7879;48.660;9.116;2023-06-26T08:14:21;25.00;99.40
15556;DHT22;7879;48.660;9.116;2023-06-26T08:16:48;25.10;98.70
15556;DHT22;7879;48.660;9.116;2023-06-26T08:19:16;25.10;99.40
15556;DHT22;7879;48.660;9.116;2023-06-26T08:21:44;25.30;98.50
15556;DHT22;7879;48.660;9.116;2023-06-26T08:24:11;25.40;98.40
15556;DHT22;7879;48.660;9.116;2023-06-26T08:26:48;25.50;98.00
15556;DHT22;7879;48.660;9.116;2023-06-26T08:29:15;25.60;97.70
15556;DHT22;7879;48.660;9.116;2023-06-26T08:31:43;25.70;98.10
15556;DHT22;7879;48.660;9.116;2023-06-26T08:34:10;25.80;97.40
15556;DHT22;7879;48.660;9.116;2023-06-26T08:36:37;25.90;97.40
15556;DHT22;7879;48.660;9.116;2023-06-26T08:39:04;26.10;97.10
15556;DHT22;7879;48.660;9.116;2023-06-26T08:41:32;26.20;97.30
15556;DHT22;7879;48.660;9.116;2023-06-26T08:43:59;26.40;96.80
15556;DHT22;7879;48.660;9.116;2023-06-26T08:46:26;26.50;95.80
15556;DHT22;7879;48.660;9.116;2023-06-26T08:49:02;26.50;96.30
15556;DHT22;7879;48.660;9.116;2023-06-26T08:51:33;26.70;95.90
15556;DHT22;7879;48.660;9.116;2023-06-26T08:54:07;26.70;95.20
15556;DHT22;7879;48.660;9.116;2023-06-26T08:56:42;26.80;94.60
15556;DHT22;7879;48.660;9.116;2023-06-26T08:59:11;26.80;93.90
15556;DHT22;7879;48.660;9.116;2023-06-26T09:01:40;26.90;94.20
15556;DHT22;7879;48.660;9.116;2023-06-26T09:04:07;27.10;94.30
15556;DHT22;7879;48.660;9.116;2023-06-26T09:06:34;27.20;94.60
15556;DHT22;7879;48.660;9.116;2023-06-26T09:09:01;27.50;93.30
15556;DHT22;7879;48.660;9.116;2023-06-26T09:11:27;27.70;93.10
15556;DHT22;7879;48.660;9.116;2023-06-26T09:13:55;27.70;92.90
15556;DHT22;7879;48.660;9.116;2023-06-26T09:16:26;27.60;92.70
15556;DHT22;7879;48.660;9.116;2023-06-26T09:18:55;27.50;91.00
15556;DHT22;7879;48.660;9.116;2023-06-26T09:21:22;27.30;91.20
15556;DHT22;7879;48.660;9.116;2023-06-26T09:23:52;27.20;92.30
15556;DHT22;7879;48.660;9.116;2023-06-26T09:26:21;27.30;92.80
15556;DHT22;7879;48.660;9.116;2023-06-26T09:28:49;27.40;92.80
15556;DHT22;7879;48.660;9.116;2023-06-26T09:31:17;27.70;92.70
15556;DHT22;7879;48.660;9.116;2023-06-26T09:34:04;27.90;92.10
15556;DHT22;7879;48.660;9.116;2023-06-26T09:36:32;27.90;90.10
15556;DHT22;7879;48.660;9.116;2023-06-26T09:39:06;27.80;89.00
15556;DHT22;7879;48.660;9.116;2023-06-26T09:41:39;27.70;88.30
15556;DHT22;7879;48.660;9.116;2023-06-26T09:44:07;27.60;89.40
15556;DHT22;7879;48.660;9.116;2023-06-26T09:46:38;27.60;90.00
15556;DHT22;7879;48.660;9.116;2023-06-26T09:49:10;27.90;90.40
15556;DHT22;7879;48.660;9.116;2023-06-26T09:51:40;28.20;89.40
15556;DHT22;7879;48.660;9.116;2023-06-26T09:54:09;28.50;87.20
15556;DHT22;7879;48.660;9.116;2023-06-26T09:56:36;28.50;85.50
15556;DHT22;7879;48.660;9.116;2023-06-26T09:59:05;28.50;86.70
15556;DHT22;7879;48.660;9.116;2023-06-26T10:01:33;28.40;86.20
15556;DHT22;7879;48.660;9.116;2023-06-26T10:04:00;28.50;86.50
15556;DHT22;7879;48.660;9.116;2023-06-26T10:06:33;28.60;85.80
15556;DHT22;7879;48.660;9.116;2023-06-26T10:09:02;28.80;86.50
15556;DHT22;7879;48.660;9.116;2023-06-26T10:11:55;29.00;84.70
15556;DHT22;7879;48.660;9.116;2023-06-26T10:14:21;29.00;83.50
15556;DHT22;7879;48.660;9.116;2023-06-26T10:16:51;28.80;82.70
15556;DHT22;7879;48.660;9.116;2023-06-26T10:19:22;28.70;82.20
15556;DHT22;7879;48.660;9.116;2023-06-26T10:21:54;28.60;82.80
15556;DHT22;7879;48.660;9.116;2023-06-26T10:24:22;28.70;82.80
15556;DHT22;7879;48.660;9.116;2023-06-26T10:26:59;29.00;81.40
15556;DHT22;7879;48.660;9.116;2023-06-26T10:29:28;29.20;82.50
15556;DHT22;7879;48.660;9.116;2023-06-26T10:31:57;29.40;81.50
15556;DHT22;7879;48.660;9.116;2023-06-26T10:34:28;29.50;81.30
15556;DHT22;7879;48.660;9.116;2023-06-26T10:37:04;29.70;82.50
15556;DHT22;7879;48.660;9.116;2023-06-26T10:39:49;29.80;79.80
15556;DHT22;7879;48.660;9.116;2023-06-26T10:42:18;29.70;80.90
15556;DHT22;7879;48.660;9.116;2023-06-26T10:44:47;29.50;79.00
15556;DHT22;7879;48.660;9.116;2023-06-26T10:47:30;29.50;79.40
15556;DHT22;7879;48.660;9.116;2023-06-26T10:55:36;29.30;83.70
15556;DHT22;7879;48.660;9.116;2023-06-26T10:58:03;29.20;84.10
15556;DHT22;7879;48.660;9.116;2023-06-26T11:00:30;29.10;85.10
15556;DHT22;7879;48.660;9.116;2023-06-26T11:02:57;29.00;85.40
15556;DHT22;7879;48.660;9.116;2023-06-26T11:05:27;29.00;86.80
15556;DHT22;7879;48.660;9.116;2023-06-26T11:08:08;29.20;87.50
15556;DHT22;7879;48.660;9.116;2023-06-26T11:10:54;29.40;86.60
15556;DHT22;7879;48.660;9.116;2023-06-26T11:13:26;29.60;85.60
15556;DHT22;7879;48.660;9.116;2023-06-26T11:15:54;29.80;85.40
15556;DHT22;7879;48.660;9.116;2023-06-26T11:18:24;30.00;85.50
15556;DHT22;7879;48.660;9.116;2023-06-26T11:20:51;29.80;83.90
15556;DHT22;7879;48.660;9.116;2023-06-26T11:23:22;30.00;84.90
15556;DHT22;7879;48.660;9.116;2023-06-26T11:25:51;30.20;84.70
15556;DHT22;7879;48.660;9.116;2023-06-26T11:28:18;30.30;83.60
15556;DHT22;7879;48.660;9.116;2023-06-26T11:30:44;30.20;83.60
15556;DHT22;7879;48.660;9.116;2023-06-26T11:33:11;30.20;83.80
15556;DHT22;7879;48.660;9.116;2023-06-26T11:35:38;30.10;83.20
15556;DHT22;7879;48.660;9.116;2023-06-26T11:38:05;30.20;82.00
15556;DHT22;7879;48.660;9.116;2023-06-26T11:40:33;30.00;81.40
15556;DHT22;7879;48.660;9.116;2023-06-26T11:43:01;30.00;83.20
15556;DHT22;7879;48.660;9.116;2023-06-26T11:45:31;30.00;83.10
15556;DHT22;7879;48.660;9.116;2023-06-26T11:48:00;30.00;82.20
15556;DHT22;7879;48.660;9.116;2023-06-26T11:50:28;30.00;83.20
15556;DHT22;7879;48.660;9.116;2023-06-26T11:52:56;30.00;81.40
15556;DHT22;7879;48.660;9.116;2023-06-26T11:55:24;30.10;82.30
15556;DHT22;7879;48.660;9.116;2023-06-26T11:57:56;30.30;81.10
15556;DHT22;7879;48.660;9.116;2023-06-26T12:00:23;30.50;81.90
15556;DHT22;7879;48.660;9.116;2023-06-26T12:02:51;30.40;82.00
15556;DHT22;7879;48.660;9.116;2023-06-26T12:05:20;30.40;82.30
15556;DHT22;7879;48.660;9.116;2023-06-26T12:07:47;30.20;82.50
15556;DHT22;7879;48.660;9.116;2023-06-26T12:10:15;30.20;82.90
15556;DHT22;7879;48.660;9.116;2023-06-26T12:12:43;30.30;83.40
15556;DHT22;7879;48.660;9.116;2023-06-26T12:15:14;30.40;83.60
15556;DHT22;7879;48.660;9.116;2023-06-26T12:17:41;30.20;83.30
15556;DHT22;7879;48.660;9.116;2023-06-26T12:20:20;30.10;83.90
15556;DHT22;7879;48.660;9.116;2023-06-26T12:22:48;30.10;82.80
15556;DHT22;7879;48.660;9.116;2023-06-26T12:25:20;30.00;83.40
15556;DHT22;7879;48.660;9.116;2023-06-26T12:27:47;30.00;83.60
15556;DHT22;7879;48.660;9.116;2023-06-26T12:30:14;30.00;84.30
15556;DHT22;7879;48.660;9.116;2023-06-26T12:32:45;30.30;83.80
15556;DHT22;7879;48.660;9.116;2023-06-26T12:35:15;30.30;85.20
15556;DHT22;7879;48.660;9.116;2023-06-26T12:37:43;30.50;84.30
15556;DHT22;7879;48.660;9.116;2023-06-26T12:40:19;30.50;84.80
15556;DHT22;7879;48.660;9.116;2023-06-26T12:42:49;30.40;84.00
15556;DHT22;7879;48.660;9.116;2023-06-26T12:45:16;30.10;84.30
15556;DHT22;7879;48.660;9.116;2023-06-26T12:47:46;29.80;85.20
15556;DHT22;7879;48.660;9.116;2023-06-26T12:50:13;30.00;86.20
15556;DHT22;7879;48.660;9.116;2023-06-26T12:52:40;30.00;84.90
15556;DHT22;7879;48.660;9.116;2023-06-26T12:55:07;30.00;85.50
15556;DHT22;7879;48.660;9.116;2023-06-26T12:57:34;30.10;86.90
15556;DHT22;7879;48.660;9.116;2023-06-26T13:00:01;30.20;85.30
15556;DHT22;7879;48.660;9.116;2023-06-26T13:02:29;30.20;84.50
15556;DHT22;7879;48.660;9.116;2023-06-26T13:04:56;30.10;85.40
15556;DHT22;7879;48.660;9.116;2023-06-26T13:07:23;30.30;86.60
15556;DHT22;7879;48.660;9.116;2023-06-26T13:09:52;30.40;84.70
15556;DHT22;7879;48.660;9.116;2023-06-26T13:12:19;30.40;85.40
15556;DHT22;7879;48.660;9.116;2023-06-26T13:14:46;30.40;85.70
15556;DHT22;7879;48.660;9.116;2023-06-26T13:17:12;30.50;85.20
15556;DHT22;7879;48.660;9.116;2023-06-26T13:19:39;30.40;84.80
15556;DHT22;7879;48.660;9.116;2023-06-26T13:22:06;30.40;84.50
15556;DHT22;7879;48.660;9.116;2023-06-26T13:24:33;30.50;84.70
15556;DHT22;7879;48.660;9.116;2023-06-26T13:27:00;30.50;84.50
15556;DHT22;7879;48.660;9.116;2023-06-26T13:29:27;30.20;84.10
15556;DHT22;7879;48.660;9.116;2023-06-26T13:31:54;30.10;85.10
15556;DHT22;7879;48.660;9.116;2023-06-26T13:34:24;30.00;85.00
15556;DHT22;7879;48.660;9.116;2023-06-26T13:36:55;30.00;84.70
15556;DHT22;7879;48.660;9.116;2023-06-26T13:39:23;30.00;84.70
15556;DHT22;7879;48.660;9.116;2023-06-26T13:41:50;29.90;84.50
15556;DHT22;7879;48.660;9.116;2023-06-26T13:44:18;29.90;85.10
15556;DHT22;7879;48.660;9.116;2023-06-26T13:47:01;29.70;84.20
15556;DHT22;7879;48.660;9.116;2023-06-26T13:49:28;29.60;83.90
15556;DHT22;7879;48.660;9.116;2023-06-26T13:51:58;29.50;84.90
15556;DHT22;7879;48.660;9.116;2023-06-26T13:54:26;29.70;85.50
15556;DHT22;7879;48.660;9.116;2023-06-26T13:56:53;29.70;83.40
15556;DHT22;7879;48.660;9.116;2023-06-26T13:59:25;29.70;84.00
15556;DHT22;7879;48.660;9.116;2023-06-26T14:01:52;29.80;83.60
15556;DHT22;7879;48.660;9.116;2023-06-26T14:04:18;29.80;83.70
15556;DHT22;7879;48.660;9.116;2023-06-26T14:06:45;29.70;83.30
15556;DHT22;7879;48.660;9.116;2023-06-26T14:09:12;29.70;83.00
15556;DHT22;7879;48.660;9.116;2023-06-26T14:11:40;29.60;82.20
15556;DHT22;7879;48.660;9.116;2023-06-26T14:14:08;29.70;82.40
15556;DHT22;7879;48.660;9.116;2023-06-26T14:16:35;29.70;81.20
15556;DHT22;7879;48.660;9.116;2023-06-26T14:19:03;29.80;80.60
15556;DHT22;7879;48.660;9.116;2023-06-26T14:21:32;29.70;80.00
15556;DHT22;7879;48.660;9.116;2023-06-26T14:24:00;29.60;80.90
15556;DHT22;7879;48.660;9.116;2023-06-26T14:26:27;29.70;79.30
15556;DHT22;7879;48.660;9.116;2023-06-26T14:28:56;29.60;79.70
15556;DHT22;7879;48.660;9.116;2023-06-26T14:31:23;29.50;79.10
15556;DHT22;7879;48.660;9.116;2023-06-26T14:33:50;29.50;78.70
15556;DHT22;7879;48.660;9.116;2023-06-26T14:36:17;29.40;80.10
15556;DHT22;7879;48.660;9.116;2023-06-26T14:38:43;29.30;78.30
15556;DHT22;7879;48.660;9.116;2023-06-26T14:41:11;29.40;79.60
15556;DHT22;7879;48.660;9.116;2023-06-26T14:43:38;29.50;79.70
15556;DHT22;7879;48.660;9.116;2023-06-26T14:46:06;29.50;78.10
15556;DHT22;7879;48.660;9.116;2023-06-26T14:48:33;29.30;79.50
15556;DHT22;7879;48.660;9.116;2023-06-26T14:51:00;29.30;79.10
15556;DHT22;7879;48.660;9.116;2023-06-26T14:53:26;29.20;78.90
15556;DHT22;7879;48.660;9.116;2023-06-26T14:55:53;29.20;78.90
15556;DHT22;7879;48.660;9.116;2023-06-26T14:58:21;29.10;78.00
15556;DHT22;7879;48.660;9.116;2023-06-26T15:00:48;29.10;78.00
15556;DHT22;7879;48.660;9.116;2023-06-26T15:03:15;29.00;77.50
15556;DHT22;7879;48.660;9.116;2023-06-26T15:05:41;28.90;78.00
15556;DHT22;7879;48.660;9.116;2023-06-26T15:08:08;28.90;78.50
15556;DHT22;7879;48.660;9.116;2023-06-26T15:10:38;29.00;78.30
15556;DHT22;7879;48.660;9.116;2023-06-26T15:13:05;29.00;77.80
15556;DHT22;7879;48.660;9.116;2023-06-26T15:15:32;28.90;78.60
15556;DHT22;7879;48.660;9.116;2023-06-26T15:17:59;28.90;78.50
15556;DHT22;7879;48.660;9.116;2023-06-26T15:20:26;28.80;78.40
15556;DHT22;7879;48.660;9.116;2023-06-26T15:22:53;28.70;78.00
15556;DHT22;7879;48.660;9.116;2023-06-26T15:25:24;28.70;78.80
15556;DHT22;7879;48.660;9.116;2023-06-26T15:27:51;28.70;79.00
15556;DHT22;7879;48.660;9.116;2023-06-26T15:30:18;28.80;78.30
15556;DHT22;7879;48.660;9.116;2023-06-26T15:32:46;28.60;78.70
15556;DHT22;7879;48.660;9.116;2023-06-26T15:35:14;28.60;78.90
15556;DHT22;7879;48.660;9.116;2023-06-26T15:37:42;28.50;78.70
15556;DHT22;7879;48.660;9.116;2023-06-26T15:40:11;28.50;79.40
15556;DHT22;7879;48.660;9.116;2023-06-26T15:42:49;28.60;79.50
15556;DHT22;7879;48.660;9.116;2023-06-26T15:45:17;28.50;78.80
15556;DHT22;7879;48.660;9.116;2023-06-26T15:47:52;28.40;79.50
15556;DHT22;7879;48.660;9.116;2023-06-26T15:50:20;28.30;78.70
15556;DHT22;7879;48.660;9.116;2023-06-26T15:52:47;28.10;78.90
15556;DHT22;7879;48.660;9.116;2023-06-26T15:55:15;28.10;79.00
15556;DHT22;7879;48.660;9.116;2023-06-26T15:57:42;28.00;79.00
15556;DHT22;7879;48.660;9.116;2023-06-26T16:00:09;28.10;79.50